createdAt,value
2022-08-10T00:00:21.676Z,15.79
2022-08-10T00:01:40.208Z,15.77
2022-08-10T00:02:43.120Z,15.78
2022-08-10T00:03:46.447Z,15.77
2022-08-10T00:04:49.363Z,15.78
2022-08-10T00:05:55.046Z,15.77
2022-08-10T00:06:58.053Z,15.76
2022-08-10T00:08:01.016Z,15.75
2022-08-10T00:09:04.187Z,15.74
2022-08-10T00:10:08.042Z,15.72
2022-08-10T00:11:15.232Z,15.71
2022-08-10T00:12:20.028Z,15.69
2022-08-10T00:13:26.099Z,15.67
2022-08-10T00:14:29.071Z,15.66
2022-08-10T00:15:52.222Z,15.66
2022-08-10T00:16:54.908Z,15.67
2022-08-10T00:17:57.970Z,15.66
2022-08-10T00:19:00.969Z,15.64
2022-08-10T00:20:08.514Z,15.63
2022-08-10T00:21:11.984Z,15.62
2022-08-10T00:22:16.983Z,15.61
2022-08-10T00:23:20.633Z,15.61
2022-08-10T00:24:24.534Z,15.59
2022-08-10T00:25:27.520Z,15.59
2022-08-10T00:27:51.709Z,15.59
2022-08-10T00:28:03.710Z,15.59
2022-08-10T00:29:09.283Z,15.59
2022-08-10T00:30:14.945Z,15.58
2022-08-10T00:31:17.837Z,15.57
2022-08-10T00:32:20.757Z,15.57
2022-08-10T00:33:24.080Z,15.57
2022-08-10T00:34:27.907Z,15.57
2022-08-10T00:35:30.836Z,15.57
2022-08-10T00:36:33.744Z,15.57
2022-08-10T00:37:36.986Z,15.57
2022-08-10T00:38:39.867Z,15.57
2022-08-10T00:39:42.991Z,15.57
2022-08-10T00:40:49.696Z,15.56
2022-08-10T00:42:06.841Z,15.56
2022-08-10T00:43:11.038Z,15.55
2022-08-10T00:44:14.137Z,15.55
2022-08-10T00:45:17.232Z,15.55
2022-08-10T00:46:20.175Z,15.55
2022-08-10T00:47:37.121Z,15.56
2022-08-10T00:48:40.841Z,15.55
2022-08-10T00:49:44.217Z,15.54
2022-08-10T00:50:47.333Z,15.54
2022-08-10T00:51:50.212Z,15.52
2022-08-10T00:52:53.417Z,15.51
2022-08-10T00:53:56.363Z,15.50
2022-08-10T00:55:00.539Z,15.49
2022-08-10T00:57:14.130Z,15.49
2022-08-10T00:57:26.684Z,15.48
2022-08-10T00:58:29.976Z,15.48
2022-08-10T00:59:33.884Z,15.47
2022-08-10T01:00:36.837Z,15.47
2022-08-10T01:02:09.109Z,15.46
2022-08-10T01:03:03.115Z,15.45
2022-08-10T01:04:54.248Z,15.45
2022-08-10T01:05:30.726Z,15.44
2022-08-10T01:06:52.070Z,15.41
2022-08-10T01:08:14.160Z,15.40
2022-08-10T01:09:26.114Z,15.39
2022-08-10T01:10:34.030Z,15.39
2022-08-10T01:12:47.341Z,15.38
2022-08-10T01:13:36.119Z,15.38
2022-08-10T01:14:45.259Z,15.37
2022-08-10T01:15:57.157Z,15.35
2022-08-10T01:17:18.678Z,15.34
2022-08-10T01:18:43.325Z,15.33
2022-08-10T01:19:49.323Z,15.32
2022-08-10T01:20:57.970Z,15.30
2022-08-10T01:22:12.950Z,15.28
2022-08-10T01:23:34.443Z,15.25
2022-08-10T01:24:55.593Z,15.24
2022-08-10T01:26:11.966Z,15.22
2022-08-10T01:27:19.284Z,15.22
2022-08-10T01:28:39.439Z,15.23
2022-08-10T01:29:53.838Z,15.23
2022-08-10T01:32:39.515Z,15.21
2022-08-10T01:33:58.558Z,15.20
2022-08-10T01:35:23.451Z,15.21
2022-08-10T01:36:34.863Z,15.22
2022-08-10T01:37:39.279Z,15.22
2022-08-10T01:38:46.574Z,15.22
2022-08-10T01:39:54.279Z,15.21
2022-08-10T01:41:02.204Z,15.20
2022-08-10T01:42:06.438Z,15.19
2022-08-10T01:43:11.127Z,15.18
2022-08-10T01:44:16.464Z,15.18
2022-08-10T01:45:24.253Z,15.17
2022-08-10T01:46:28.148Z,15.18
2022-08-10T01:47:53.241Z,15.17
2022-08-10T01:48:57.366Z,15.16
2022-08-10T01:50:05.126Z,15.16
2022-08-10T01:51:26.719Z,15.16
2022-08-10T01:52:31.038Z,15.16
2022-08-10T01:53:47.217Z,15.15
2022-08-10T01:54:52.060Z,15.13
2022-08-10T01:55:56.838Z,15.12
2022-08-10T01:57:01.962Z,15.10
2022-08-10T01:58:06.634Z,15.08
2022-08-10T01:59:11.977Z,15.06
2022-08-10T02:00:15.069Z,15.06
2022-08-10T02:01:20.054Z,15.05
2022-08-10T02:02:24.080Z,15.03
2022-08-10T02:03:28.161Z,15.02
2022-08-10T02:04:32.728Z,15.01
2022-08-10T02:05:37.315Z,14.99
2022-08-10T02:06:43.575Z,14.96
2022-08-10T02:07:46.937Z,14.96
2022-08-10T02:08:55.810Z,14.97
2022-08-10T02:10:11.096Z,14.97
2022-08-10T02:11:14.834Z,14.97
2022-08-10T02:12:19.754Z,14.96
2022-08-10T02:13:23.342Z,14.95
2022-08-10T02:14:33.015Z,14.95
2022-08-10T02:15:39.552Z,14.94
2022-08-10T02:17:06.978Z,14.94
2022-08-10T02:18:10.783Z,14.94
2022-08-10T02:19:15.978Z,14.94
2022-08-10T02:20:22.798Z,14.93
2022-08-10T02:21:26.744Z,14.91
2022-08-10T02:22:36.860Z,14.90
2022-08-10T02:23:43.393Z,14.87
2022-08-10T02:24:47.166Z,14.86
2022-08-10T02:25:51.543Z,14.85
2022-08-10T02:26:56.469Z,14.84
2022-08-10T02:28:05.220Z,14.82
2022-08-10T02:29:11.492Z,14.80
2022-08-10T02:30:14.674Z,14.80
2022-08-10T02:31:21.223Z,14.79
2022-08-10T02:32:34.053Z,14.79
2022-08-10T02:33:54.186Z,14.79
2022-08-10T02:35:03.027Z,14.79
2022-08-10T02:36:07.412Z,14.79
2022-08-10T02:37:12.194Z,14.79
2022-08-10T02:38:19.826Z,14.80
2022-08-10T02:39:24.923Z,14.80
2022-08-10T02:42:18.359Z,14.80
2022-08-10T02:45:15.616Z,14.79
2022-08-10T02:45:21.099Z,14.78
2022-08-10T02:45:24.326Z,14.76
2022-08-10T02:46:20.785Z,14.76
2022-08-10T02:47:30.240Z,14.75
2022-08-10T02:49:01.229Z,14.74
2022-08-10T02:50:13.369Z,14.74
2022-08-10T02:51:20.868Z,14.74
2022-08-10T02:52:48.806Z,14.72
2022-08-10T02:53:56.029Z,14.71
2022-08-10T02:55:17.464Z,14.71
2022-08-10T02:56:21.496Z,14.70
2022-08-10T02:57:29.446Z,14.69
2022-08-10T02:58:39.881Z,14.67
2022-08-10T02:59:48.370Z,14.66
2022-08-10T03:00:53.604Z,14.64
2022-08-10T03:01:59.382Z,14.63
2022-08-10T03:03:03.690Z,14.62
2022-08-10T03:04:09.191Z,14.62
2022-08-10T03:05:13.415Z,14.61
2022-08-10T03:06:20.851Z,14.61
2022-08-10T03:07:44.042Z,14.60
2022-08-10T03:08:49.260Z,14.59
2022-08-10T03:09:53.673Z,14.59
2022-08-10T03:11:00.167Z,14.59
2022-08-10T03:12:35.170Z,14.60
2022-08-10T03:13:26.749Z,14.60
2022-08-10T03:14:30.661Z,14.60
2022-08-10T03:15:34.715Z,14.60
2022-08-10T03:16:38.752Z,14.59
2022-08-10T03:17:42.647Z,14.59
2022-08-10T03:19:02.684Z,14.59
2022-08-10T03:20:37.592Z,14.58
2022-08-10T03:21:30.749Z,14.58
2022-08-10T03:22:34.726Z,14.57
2022-08-10T03:23:38.170Z,14.57
2022-08-10T03:24:43.220Z,14.57
2022-08-10T03:25:52.998Z,14.58
2022-08-10T03:26:59.146Z,14.58
2022-08-10T03:28:02.327Z,14.58
2022-08-10T03:29:05.759Z,14.58
2022-08-10T03:30:32.404Z,14.58
2022-08-10T03:31:33.088Z,14.57
2022-08-10T03:32:36.883Z,14.56
2022-08-10T03:33:41.475Z,14.55
2022-08-10T03:34:45.719Z,14.56
2022-08-10T03:36:39.982Z,14.55
2022-08-10T03:37:12.233Z,14.55
2022-08-10T03:38:15.430Z,14.55
2022-08-10T03:39:18.391Z,14.56
2022-08-10T03:40:21.378Z,14.57
2022-08-10T03:41:37.810Z,14.56
2022-08-10T03:42:40.921Z,14.55
2022-08-10T03:43:47.779Z,14.54
2022-08-10T03:44:52.885Z,14.52
2022-08-10T03:45:58.669Z,14.50
2022-08-10T03:47:02.663Z,14.49
2022-08-10T03:48:07.047Z,14.49
2022-08-10T03:49:11.398Z,14.51
2022-08-10T03:50:46.034Z,14.52
2022-08-10T03:51:39.862Z,14.54
2022-08-10T03:52:43.584Z,14.55
2022-08-10T03:54:04.689Z,14.56
2022-08-10T03:55:11.202Z,14.58
2022-08-10T03:56:28.952Z,14.60
2022-08-10T03:57:33.914Z,14.63
2022-08-10T03:58:36.845Z,14.63
2022-08-10T03:59:39.722Z,14.66
2022-08-10T04:00:43.378Z,14.68
2022-08-10T04:02:47.141Z,14.71
2022-08-10T04:03:10.393Z,14.73
2022-08-10T04:04:15.504Z,14.74
2022-08-10T04:05:22.123Z,14.75
2022-08-10T04:06:25.251Z,14.77
2022-08-10T04:07:28.563Z,14.78
2022-08-10T04:08:31.848Z,14.80
2022-08-10T04:09:42.771Z,14.81
2022-08-10T04:10:57.829Z,14.84
2022-08-10T04:12:01.107Z,14.85
2022-08-10T04:13:04.058Z,14.88
2022-08-10T04:14:06.990Z,14.90
2022-08-10T04:15:12.136Z,14.91
2022-08-10T04:16:15.119Z,14.93
2022-08-10T04:17:18.320Z,14.95
2022-08-10T04:18:41.030Z,14.99
2022-08-10T04:19:48.195Z,15.02
2022-08-10T04:20:55.350Z,15.06
2022-08-10T04:22:05.332Z,15.10
2022-08-10T04:23:09.803Z,15.14
2022-08-10T04:24:24.659Z,15.17
2022-08-10T04:25:30.809Z,15.19
2022-08-10T04:26:33.866Z,15.21
2022-08-10T04:27:37.311Z,15.23
2022-08-10T04:28:41.172Z,15.25
2022-08-10T04:29:44.706Z,15.27
2022-08-10T04:30:48.205Z,15.30
2022-08-10T04:31:52.760Z,15.32
2022-08-10T04:32:56.722Z,15.35
2022-08-10T04:34:00.800Z,15.37
2022-08-10T04:35:13.799Z,15.41
2022-08-10T04:36:20.999Z,15.44
2022-08-10T04:37:24.848Z,15.47
2022-08-10T04:38:29.034Z,15.51
2022-08-10T04:39:32.375Z,15.56
2022-08-10T04:40:35.378Z,15.60
2022-08-10T04:41:38.467Z,15.63
2022-08-10T04:42:49.279Z,15.68
2022-08-10T04:43:52.156Z,15.73
2022-08-10T04:44:55.250Z,15.76
2022-08-10T04:45:58.480Z,15.79
2022-08-10T04:47:01.740Z,15.83
2022-08-10T04:48:05.188Z,15.86
2022-08-10T04:49:13.377Z,15.91
2022-08-10T04:50:31.539Z,15.96
2022-08-10T04:51:35.286Z,16.01
2022-08-10T04:52:38.355Z,16.06
2022-08-10T04:54:02.707Z,16.11
2022-08-10T04:55:04.699Z,16.18
2022-08-10T04:56:08.791Z,16.24
2022-08-10T04:57:11.720Z,16.29
2022-08-10T04:58:14.587Z,16.36
2022-08-10T04:59:17.675Z,16.42
2022-08-10T05:00:20.605Z,16.47
2022-08-10T05:01:25.031Z,16.53
2022-08-10T05:02:38.818Z,16.58
2022-08-10T05:04:34.142Z,16.64
2022-08-10T05:05:04.916Z,16.72
2022-08-10T05:06:11.070Z,16.78
2022-08-10T05:07:18.149Z,16.85
2022-08-10T05:08:21.758Z,16.92
2022-08-10T05:09:25.050Z,16.97
2022-08-10T05:10:27.964Z,17.04
2022-08-10T05:11:31.181Z,17.11
2022-08-10T05:12:36.370Z,17.17
2022-08-10T05:13:39.642Z,17.23
2022-08-10T05:14:42.649Z,17.29
2022-08-10T05:15:46.093Z,17.35
2022-08-10T05:16:48.975Z,17.42
2022-08-10T05:18:08.799Z,17.47
2022-08-10T05:19:13.310Z,17.56
2022-08-10T05:20:16.693Z,17.64
2022-08-10T05:22:02.463Z,17.74
2022-08-10T05:22:43.741Z,17.85
2022-08-10T05:23:46.730Z,17.92
2022-08-10T05:24:49.589Z,18.00
2022-08-10T05:25:52.613Z,18.07
2022-08-10T05:27:09.704Z,18.15
2022-08-10T05:28:13.559Z,18.21
2022-08-10T05:29:16.665Z,18.24
2022-08-10T05:30:21.958Z,18.28
2022-08-10T05:31:24.966Z,18.32
2022-08-10T05:32:28.047Z,18.36
2022-08-10T05:33:31.204Z,18.40
2022-08-10T05:34:34.262Z,18.45
2022-08-10T05:35:56.803Z,18.49
2022-08-10T05:37:01.964Z,18.54
2022-08-10T05:38:12.263Z,18.59
2022-08-10T05:39:18.846Z,18.65
2022-08-10T05:40:34.453Z,18.72
2022-08-10T05:41:41.517Z,18.77
2022-08-10T05:42:48.106Z,18.81
2022-08-10T05:43:52.766Z,18.85
2022-08-10T05:44:56.141Z,18.90
2022-08-10T05:46:17.455Z,18.96
2022-08-10T05:47:22.239Z,19.02
2022-08-10T05:48:56.966Z,19.07
2022-08-10T05:49:49.110Z,19.11
2022-08-10T05:50:52.087Z,19.15
2022-08-10T05:51:55.120Z,19.18
2022-08-10T05:52:59.257Z,19.25
2022-08-10T05:54:09.599Z,19.31
2022-08-10T05:55:12.725Z,19.37
2022-08-10T05:56:20.158Z,19.41
2022-08-10T05:57:23.871Z,19.45
2022-08-10T05:58:26.886Z,19.49
2022-08-10T06:00:35.746Z,19.53
2022-08-10T06:00:56.119Z,19.59
2022-08-10T06:02:31.283Z,19.66
2022-08-10T06:03:32.338Z,19.78
2022-08-10T06:04:38.950Z,19.88
2022-08-10T06:05:44.156Z,19.91
2022-08-10T06:06:48.134Z,19.92
2022-08-10T06:08:09.633Z,19.93
2022-08-10T06:09:12.999Z,19.96
2022-08-10T06:10:28.525Z,20.00
2022-08-10T06:12:26.488Z,20.02
2022-08-10T06:13:26.929Z,20.09
2022-08-10T06:14:59.670Z,20.18
2022-08-10T06:16:04.689Z,20.25
2022-08-10T06:17:07.632Z,20.29
2022-08-10T06:18:11.995Z,20.31
2022-08-10T06:19:15.498Z,20.35
2022-08-10T06:20:18.764Z,20.35
2022-08-10T06:21:22.083Z,20.35
2022-08-10T06:22:28.627Z,20.35
2022-08-10T06:23:32.352Z,20.37
2022-08-10T06:25:02.688Z,20.40
2022-08-10T06:26:11.332Z,20.40
2022-08-10T06:27:17.604Z,20.35
2022-08-10T06:28:25.812Z,20.33
2022-08-10T06:29:31.113Z,20.31
2022-08-10T06:30:35.125Z,20.30
2022-08-10T06:31:49.037Z,20.28
2022-08-10T06:32:56.749Z,20.27
2022-08-10T06:34:00.681Z,20.25
2022-08-10T06:35:08.343Z,20.23
2022-08-10T06:36:11.590Z,20.22
2022-08-10T06:37:17.633Z,20.22
2022-08-10T06:38:23.731Z,20.23
2022-08-10T06:39:36.139Z,20.26
2022-08-10T06:40:43.238Z,20.27
2022-08-10T06:42:14.601Z,20.27
2022-08-10T06:43:14.495Z,20.25
2022-08-10T06:44:20.998Z,20.23
2022-08-10T06:45:27.338Z,20.21
2022-08-10T06:46:30.782Z,20.21
2022-08-10T06:47:33.694Z,20.24
2022-08-10T06:48:41.673Z,20.27
2022-08-10T06:49:45.406Z,20.31
2022-08-10T06:50:58.245Z,20.34
2022-08-10T06:52:03.034Z,20.35
2022-08-10T06:53:11.111Z,20.37
2022-08-10T06:54:14.704Z,20.40
2022-08-10T06:55:18.834Z,20.43
2022-08-10T06:56:36.211Z,20.45
2022-08-10T06:57:42.830Z,20.45
2022-08-10T06:58:57.396Z,20.42
2022-08-10T07:00:01.508Z,20.42
2022-08-10T07:01:08.183Z,20.42
2022-08-10T07:02:15.985Z,20.41
2022-08-10T07:03:20.191Z,20.42
2022-08-10T07:04:46.203Z,20.41
2022-08-10T07:05:51.525Z,20.36
2022-08-10T07:06:55.443Z,20.34
2022-08-10T07:08:01.050Z,20.36
2022-08-10T07:09:05.003Z,20.37
2022-08-10T07:10:09.479Z,20.36
2022-08-10T07:11:13.941Z,20.35
2022-08-10T07:12:20.603Z,20.34
2022-08-10T07:14:15.567Z,20.35
2022-08-10T07:14:47.920Z,20.38
2022-08-10T07:15:59.818Z,20.40
2022-08-10T07:17:04.716Z,20.46
2022-08-10T07:18:08.357Z,20.50
2022-08-10T07:19:12.046Z,20.51
2022-08-10T07:20:18.837Z,20.53
2022-08-10T07:21:22.697Z,20.54
2022-08-10T07:23:04.840Z,20.54
2022-08-10T07:23:58.806Z,20.55
2022-08-10T07:25:06.841Z,20.60
2022-08-10T07:26:11.703Z,20.64
2022-08-10T07:27:17.237Z,20.65
2022-08-10T07:28:21.698Z,20.67
2022-08-10T07:29:54.295Z,20.67
2022-08-10T07:30:54.759Z,20.71
2022-08-10T07:31:59.137Z,20.72
2022-08-10T07:33:02.628Z,20.70
2022-08-10T07:34:07.366Z,20.68
2022-08-10T07:35:12.249Z,20.67
2022-08-10T07:36:15.703Z,20.65
2022-08-10T07:37:20.205Z,20.63
2022-08-10T07:38:24.771Z,20.64
2022-08-10T07:40:03.149Z,20.67
2022-08-10T07:40:54.235Z,20.69
2022-08-10T07:41:59.091Z,20.71
2022-08-10T07:43:02.858Z,20.70
2022-08-10T07:44:06.428Z,20.71
2022-08-10T07:45:09.960Z,20.73
2022-08-10T07:46:15.137Z,20.76
2022-08-10T07:47:20.053Z,20.76
2022-08-10T07:48:47.872Z,20.77
2022-08-10T07:49:53.148Z,20.80
2022-08-10T07:50:59.442Z,20.82
2022-08-10T07:52:06.361Z,20.88
2022-08-10T07:53:12.426Z,20.92
2022-08-10T07:54:18.340Z,20.91
2022-08-10T07:56:03.662Z,20.89
2022-08-10T07:56:49.236Z,20.89
2022-08-10T07:57:54.697Z,20.87
2022-08-10T07:59:01.824Z,20.88
2022-08-10T08:00:08.134Z,20.92
2022-08-10T08:01:18.881Z,20.98
2022-08-10T08:02:28.035Z,21.03
2022-08-10T08:03:33.950Z,21.04
2022-08-10T08:04:37.182Z,21.07
2022-08-10T08:05:58.390Z,21.10
2022-08-10T08:07:04.635Z,21.13
2022-08-10T08:08:07.825Z,21.15
2022-08-10T08:09:11.507Z,21.15
2022-08-10T08:10:16.301Z,21.11
2022-08-10T08:11:26.177Z,21.08
2022-08-10T08:12:36.664Z,21.07
2022-08-10T08:13:40.482Z,21.03
2022-08-10T08:14:44.143Z,20.99
2022-08-10T08:16:20.482Z,20.99
2022-08-10T08:17:13.642Z,20.99
2022-08-10T08:18:21.682Z,20.97
2022-08-10T08:19:37.353Z,20.95
2022-08-10T08:20:45.693Z,20.92
2022-08-10T08:24:07.953Z,20.96
2022-08-10T08:24:33.053Z,21.02
2022-08-10T08:24:39.753Z,21.02
2022-08-10T08:25:43.456Z,21.01
2022-08-10T08:26:49.363Z,21.02
2022-08-10T08:27:56.823Z,21.04
2022-08-10T08:28:59.939Z,21.07
2022-08-10T08:30:09.175Z,21.10
2022-08-10T08:31:13.941Z,21.14
2022-08-10T08:32:18.448Z,21.20
2022-08-10T08:33:42.389Z,21.25
2022-08-10T08:34:46.243Z,21.31
2022-08-10T08:35:52.539Z,21.37
2022-08-10T08:36:59.340Z,21.39
2022-08-10T08:38:29.590Z,21.38
2022-08-10T08:39:26.242Z,21.29
2022-08-10T08:40:30.651Z,21.24
2022-08-10T08:41:57.275Z,21.19
2022-08-10T08:43:16.142Z,21.16
2022-08-10T08:44:39.915Z,21.15
2022-08-10T08:46:01.993Z,21.16
2022-08-10T08:48:05.882Z,21.14
2022-08-10T08:49:02.742Z,21.19
2022-08-10T08:50:19.986Z,21.20
2022-08-10T08:52:09.832Z,21.22
2022-08-10T08:53:22.657Z,21.23
2022-08-10T08:54:48.387Z,21.29
2022-08-10T08:56:03.558Z,21.36
2022-08-10T08:57:49.126Z,21.40
2022-08-10T08:58:59.122Z,21.56
2022-08-10T09:00:19.615Z,21.64
2022-08-10T09:01:40.436Z,21.73
2022-08-10T09:03:03.441Z,21.79
2022-08-10T09:04:34.203Z,21.80
2022-08-10T09:05:59.420Z,21.75
2022-08-10T09:07:59.243Z,21.68
2022-08-10T09:08:57.040Z,21.66
2022-08-10T09:10:12.804Z,21.76
2022-08-10T09:11:19.302Z,21.87
2022-08-10T09:12:37.690Z,21.91
2022-08-10T09:13:52.879Z,21.95
2022-08-10T09:15:09.808Z,21.99
2022-08-10T09:16:44.863Z,22.08
2022-08-10T09:18:06.488Z,22.09
2022-08-10T09:19:36.684Z,22.10
2022-08-10T09:20:48.116Z,22.12
2022-08-10T09:22:09.929Z,22.12
2022-08-10T09:24:01.397Z,22.23
2022-08-10T09:25:08.076Z,22.29
2022-08-10T09:26:21.849Z,22.30
2022-08-10T09:27:49.690Z,22.34
2022-08-10T09:29:12.651Z,22.42
2022-08-10T09:30:18.563Z,22.47
2022-08-10T09:31:41.151Z,22.47
2022-08-10T09:36:21.268Z,22.47
2022-08-10T09:36:29.225Z,22.46
2022-08-10T09:36:31.245Z,22.52
2022-08-10T09:38:02.830Z,22.53
2022-08-10T09:39:12.351Z,22.54
2022-08-10T09:41:04.019Z,22.54
2022-08-10T09:42:16.095Z,22.59
2022-08-10T09:43:25.206Z,22.53
2022-08-10T09:44:29.517Z,22.49
2022-08-10T09:45:38.629Z,22.54
2022-08-10T09:46:54.713Z,22.60
2022-08-10T09:48:03.492Z,22.56
2022-08-10T09:49:09.248Z,22.51
2022-08-10T09:50:12.449Z,22.51
2022-08-10T09:51:44.740Z,22.55
2022-08-10T09:53:07.057Z,22.61
2022-08-10T09:54:20.940Z,22.63
2022-08-10T09:56:18.282Z,22.60
2022-08-10T09:57:44.906Z,22.52
2022-08-10T09:58:43.230Z,22.54
2022-08-10T10:00:00.365Z,22.62
2022-08-10T10:02:02.497Z,22.68
2022-08-10T10:03:06.527Z,22.65
2022-08-10T10:04:22.470Z,22.61
2022-08-10T10:05:31.121Z,22.51
2022-08-10T10:06:54.362Z,22.48
2022-08-10T10:08:10.672Z,22.47
2022-08-10T10:09:33.934Z,22.49
2022-08-10T10:10:47.761Z,22.47
2022-08-10T10:12:10.328Z,22.45
2022-08-10T10:13:18.513Z,22.49
2022-08-10T10:15:12.079Z,22.56
2022-08-10T10:16:46.794Z,22.52
2022-08-10T10:18:00.314Z,22.46
2022-08-10T10:19:22.065Z,22.43
2022-08-10T10:20:44.033Z,22.47
2022-08-10T10:21:55.517Z,22.57
2022-08-10T10:22:59.637Z,22.61
2022-08-10T10:24:21.597Z,22.67
2022-08-10T10:25:50.787Z,22.68
2022-08-10T10:26:57.544Z,22.64
2022-08-10T10:28:19.146Z,22.53
2022-08-10T10:29:58.544Z,22.43
2022-08-10T10:31:02.150Z,22.35
2022-08-10T10:32:14.157Z,22.31
2022-08-10T10:33:25.490Z,22.33
2022-08-10T10:34:28.314Z,22.29
2022-08-10T10:35:50.322Z,22.31
2022-08-10T10:36:54.330Z,22.39
2022-08-10T10:38:10.662Z,22.51
2022-08-10T10:39:15.254Z,22.61
2022-08-10T10:40:19.116Z,22.64
2022-08-10T10:41:27.870Z,22.69
2022-08-10T10:42:44.879Z,22.78
2022-08-10T10:44:07.485Z,22.91
2022-08-10T10:45:19.551Z,22.98
2022-08-10T10:46:31.768Z,23.03
2022-08-10T10:47:49.462Z,23.03
2022-08-10T10:48:57.896Z,22.95
2022-08-10T10:50:13.354Z,22.84
2022-08-10T10:51:27.626Z,22.73
2022-08-10T10:52:42.050Z,22.69
2022-08-10T10:54:03.917Z,22.66
2022-08-10T10:55:10.457Z,22.71
2022-08-10T10:56:16.262Z,22.71
2022-08-10T10:57:59.089Z,22.67
2022-08-10T10:59:53.367Z,22.60
2022-08-10T11:00:34.915Z,22.52
2022-08-10T11:01:46.739Z,22.53
2022-08-10T11:02:49.724Z,22.58
2022-08-10T11:04:01.295Z,22.60
2022-08-10T11:05:04.198Z,22.63
2022-08-10T11:06:15.367Z,22.65
2022-08-10T11:07:54.937Z,22.73
2022-08-10T11:09:03.535Z,22.89
2022-08-10T11:10:33.258Z,22.97
2022-08-10T11:12:00.294Z,23.03
2022-08-10T11:14:25.726Z,23.11
2022-08-10T11:14:54.503Z,23.23
2022-08-10T11:15:57.445Z,23.27
2022-08-10T11:17:11.336Z,23.30
2022-08-10T11:18:36.850Z,23.39
2022-08-10T11:20:01.201Z,23.53
2022-08-10T11:21:13.635Z,23.66
2022-08-10T11:22:20.254Z,23.76
2022-08-10T11:23:29.171Z,23.82
2022-08-10T11:24:49.722Z,23.88
2022-08-10T11:25:59.864Z,23.91
2022-08-10T11:27:03.014Z,24.00
2022-08-10T11:28:29.108Z,24.15
2022-08-10T11:29:42.594Z,24.33
2022-08-10T11:30:58.396Z,24.31
2022-08-10T11:32:21.130Z,24.23
2022-08-10T11:34:11.555Z,24.28
2022-08-10T11:35:22.403Z,24.61
2022-08-10T11:36:44.198Z,24.89
2022-08-10T11:38:32.816Z,25.03
2022-08-10T11:39:31.967Z,24.99
2022-08-10T11:40:48.606Z,24.98
2022-08-10T11:42:09.792Z,25.15
2022-08-10T11:43:24.269Z,25.32
2022-08-10T11:44:31.127Z,25.47
2022-08-10T11:45:36.786Z,25.56
2022-08-10T11:46:54.178Z,25.69
2022-08-10T11:47:59.589Z,25.84
2022-08-10T11:49:27.223Z,25.96
2022-08-10T11:50:37.187Z,26.06
2022-08-10T11:51:43.000Z,26.10
2022-08-10T11:52:48.687Z,26.18
2022-08-10T11:53:57.435Z,26.24
2022-08-10T11:55:05.525Z,26.37
2022-08-10T11:56:11.176Z,26.54
2022-08-10T11:57:16.095Z,26.69
2022-08-10T11:58:40.343Z,26.86
2022-08-10T11:59:59.281Z,26.94
2022-08-10T12:01:04.774Z,26.98
2022-08-10T12:02:09.711Z,27.05
2022-08-10T12:03:12.935Z,27.17
2022-08-10T12:04:16.930Z,27.26
2022-08-10T12:05:23.793Z,27.34
2022-08-10T12:07:02.120Z,27.46
2022-08-10T12:10:02.098Z,27.44
2022-08-10T12:10:05.426Z,27.48
2022-08-10T12:10:52.491Z,27.71
2022-08-10T12:11:57.120Z,27.79
2022-08-10T12:13:06.755Z,27.81
2022-08-10T12:14:22.976Z,27.89
2022-08-10T12:15:29.753Z,28.08
2022-08-10T12:16:35.090Z,28.31
2022-08-10T12:17:42.448Z,28.56
2022-08-10T12:18:46.797Z,28.68
2022-08-10T12:20:05.879Z,28.71
2022-08-10T12:21:21.340Z,28.92
2022-08-10T12:22:30.107Z,29.13
2022-08-10T12:23:43.898Z,29.27
2022-08-10T12:24:46.739Z,29.42
2022-08-10T12:25:56.883Z,29.53
2022-08-10T12:27:20.695Z,29.63
2022-08-10T12:28:50.488Z,29.63
2022-08-10T12:30:12.875Z,29.48
2022-08-10T12:31:17.327Z,29.59
2022-08-10T12:32:34.071Z,29.79
2022-08-10T12:34:02.154Z,30.04
2022-08-10T12:35:07.527Z,30.25
2022-08-10T12:36:30.696Z,30.33
2022-08-10T12:37:42.947Z,30.45
2022-08-10T12:39:23.242Z,30.58
2022-08-10T12:40:36.871Z,30.54
2022-08-10T12:42:00.669Z,30.50
2022-08-10T12:44:03.579Z,30.52
2022-08-10T12:44:41.317Z,30.64
2022-08-10T12:45:48.295Z,30.67
2022-08-10T12:46:54.222Z,30.77
2022-08-10T12:48:06.103Z,30.95
2022-08-10T12:49:13.786Z,31.30
2022-08-10T12:50:31.848Z,31.56
2022-08-10T12:51:49.628Z,31.86
2022-08-10T12:53:06.298Z,32.19
2022-08-10T12:54:15.684Z,32.40
2022-08-10T12:55:27.536Z,32.56
2022-08-10T12:56:34.768Z,32.69
2022-08-10T12:57:40.308Z,32.69
2022-08-10T12:59:00.446Z,32.63
2022-08-10T13:00:05.500Z,32.74
2022-08-10T13:01:16.452Z,32.99
2022-08-10T13:02:25.766Z,33.20
2022-08-10T13:04:22.303Z,33.33
2022-08-10T13:04:54.887Z,33.49
2022-08-10T13:06:03.061Z,33.50
2022-08-10T13:07:06.701Z,33.62
2022-08-10T13:08:28.739Z,33.89
2022-08-10T13:09:32.832Z,34.05
2022-08-10T13:10:43.598Z,34.07
2022-08-10T13:12:39.259Z,34.22
2022-08-10T13:13:20.366Z,34.28
2022-08-10T13:14:36.941Z,34.20
2022-08-10T13:15:49.555Z,33.91
2022-08-10T13:16:56.483Z,33.81
2022-08-10T13:18:01.611Z,33.75
2022-08-10T13:19:05.794Z,33.73
2022-08-10T13:20:37.885Z,33.74
2022-08-10T13:21:41.676Z,33.72
2022-08-10T13:22:47.165Z,33.61
2022-08-10T13:24:03.573Z,33.52
2022-08-10T13:25:09.483Z,33.66
2022-08-10T13:26:14.678Z,33.93
2022-08-10T13:27:26.556Z,34.15
2022-08-10T13:28:40.141Z,34.29
2022-08-10T13:29:50.653Z,34.41
2022-08-10T13:30:55.724Z,34.53
2022-08-10T13:32:03.576Z,34.61
2022-08-10T13:33:14.215Z,34.48
2022-08-10T13:34:42.707Z,34.36
2022-08-10T13:35:47.249Z,34.41
2022-08-10T13:36:52.937Z,34.52
2022-08-10T13:37:58.076Z,34.61
2022-08-10T13:39:01.950Z,34.68
2022-08-10T13:40:08.360Z,34.67
2022-08-10T13:41:11.636Z,34.69
2022-08-10T13:42:14.930Z,34.85
2022-08-10T13:43:19.118Z,35.02
2022-08-10T13:44:38.395Z,35.06
2022-08-10T13:45:46.419Z,35.06
2022-08-10T13:46:54.779Z,34.93
2022-08-10T13:48:09.671Z,34.92
2022-08-10T13:49:15.103Z,35.01
2022-08-10T13:50:33.376Z,35.00
2022-08-10T13:51:53.793Z,34.92
2022-08-10T13:53:02.328Z,34.99
2022-08-10T13:54:08.061Z,34.94
2022-08-10T13:55:13.510Z,34.83
2022-08-10T13:56:17.166Z,34.75
2022-08-10T13:57:22.270Z,34.67
2022-08-10T13:58:30.627Z,34.71
2022-08-10T14:00:35.154Z,34.87
2022-08-10T14:00:59.099Z,35.05
2022-08-10T14:02:03.180Z,35.20
2022-08-10T14:03:10.822Z,35.34
2022-08-10T14:04:14.434Z,35.46
2022-08-10T14:05:24.772Z,35.62
2022-08-10T14:06:29.805Z,35.78
2022-08-10T14:07:37.555Z,35.84
2022-08-10T14:08:45.896Z,35.93
2022-08-10T14:09:50.589Z,35.99
2022-08-10T14:11:08.807Z,36.10
2022-08-10T14:12:15.331Z,36.03
2022-08-10T14:13:19.862Z,36.00
2022-08-10T14:14:24.659Z,36.04
2022-08-10T14:15:30.471Z,36.06
2022-08-10T14:16:34.842Z,35.85
2022-08-10T14:17:44.128Z,35.75
2022-08-10T14:18:49.221Z,35.73
2022-08-10T14:19:58.596Z,35.72
2022-08-10T14:21:05.011Z,35.55
2022-08-10T14:22:09.675Z,35.26
2022-08-10T14:23:14.064Z,35.21
2022-08-10T14:24:21.714Z,35.23
2022-08-10T14:25:24.934Z,35.33
2022-08-10T14:26:29.162Z,35.44
2022-08-10T14:28:02.579Z,35.51
2022-08-10T14:29:03.680Z,35.70
2022-08-10T14:30:07.160Z,35.80
2022-08-10T14:31:11.904Z,35.73
2022-08-10T14:32:21.776Z,35.50
2022-08-10T14:33:25.302Z,35.41
2022-08-10T14:34:59.303Z,35.33
2022-08-10T14:36:20.170Z,35.39
2022-08-10T14:37:22.374Z,35.56
2022-08-10T14:38:27.972Z,35.73
2022-08-10T14:39:42.797Z,35.72
2022-08-10T14:40:47.148Z,35.77
2022-08-10T14:42:03.398Z,35.88
2022-08-10T14:43:16.247Z,35.94
2022-08-10T14:44:33.506Z,36.05
2022-08-10T14:45:37.972Z,36.14
2022-08-10T14:46:45.571Z,36.15
2022-08-10T14:47:55.950Z,36.16
2022-08-10T14:49:25.584Z,36.09
2022-08-10T14:50:31.685Z,36.19
2022-08-10T14:51:44.486Z,36.39
2022-08-10T14:52:48.478Z,36.63
2022-08-10T14:53:54.171Z,36.69
2022-08-10T14:55:04.465Z,36.78
2022-08-10T14:56:07.710Z,36.82
2022-08-10T14:57:12.316Z,36.77
2022-08-10T14:58:21.302Z,36.75
2022-08-10T15:00:20.682Z,36.77
2022-08-10T15:00:52.380Z,36.87
2022-08-10T15:02:39.066Z,36.86
2022-08-10T15:03:58.347Z,36.92
2022-08-10T15:04:52.441Z,36.75
2022-08-10T15:05:59.089Z,36.74
2022-08-10T15:07:12.273Z,36.83
2022-08-10T15:08:17.316Z,36.75
2022-08-10T15:09:22.092Z,36.66
2022-08-10T15:10:25.509Z,36.65
2022-08-10T15:12:11.778Z,36.61
2022-08-10T15:12:55.710Z,36.77
2022-08-10T15:14:41.058Z,36.84
2022-08-10T15:15:28.523Z,36.95